createdAt,value
2018-06-20T00:00:08.665Z,4.57
2018-06-20T00:02:36.746Z,4.00
2018-06-20T00:05:04.907Z,2.60
2018-06-20T00:07:33.033Z,2.13
2018-06-20T00:10:01.344Z,2.67
2018-06-20T00:12:29.488Z,4.13
2018-06-20T00:14:57.612Z,2.00
2018-06-20T00:17:25.724Z,1.90
2018-06-20T00:19:53.844Z,2.83
2018-06-20T00:22:21.957Z,3.30
2018-06-20T00:24:50.090Z,3.43
2018-06-20T00:27:18.305Z,3.50
2018-06-20T00:29:46.444Z,2.43
2018-06-20T00:32:14.590Z,5.00
2018-06-20T00:34:42.708Z,1.80
2018-06-20T00:37:10.837Z,2.10
2018-06-20T00:39:38.758Z,3.80
2018-06-20T00:42:06.929Z,8.60
2018-06-20T00:44:35.057Z,2.33
2018-06-20T00:47:03.152Z,6.83
2018-06-20T00:49:31.301Z,13.73
2018-06-20T00:51:59.440Z,2.90
2018-06-20T00:54:27.694Z,3.20
2018-06-20T00:56:55.813Z,8.10
2018-06-20T00:59:23.931Z,3.37
2018-06-20T01:01:51.893Z,4.30
2018-06-20T01:04:20.012Z,2.30
2018-06-20T01:06:47.917Z,4.30
2018-06-20T01:09:16.049Z,3.37
2018-06-20T01:11:44.243Z,5.10
2018-06-20T01:14:12.292Z,4.17
2018-06-20T01:16:40.399Z,5.57
2018-06-20T01:19:08.306Z,6.87
2018-06-20T01:21:36.421Z,6.20
2018-06-20T01:24:04.556Z,6.30
2018-06-20T01:26:32.706Z,6.40
2018-06-20T01:29:00.836Z,8.53
2018-06-20T01:31:28.937Z,7.40
2018-06-20T01:33:57.051Z,4.90
2018-06-20T01:36:25.156Z,6.60
2018-06-20T01:38:53.292Z,7.93
2018-06-20T01:41:21.404Z,4.97
2018-06-20T01:43:49.518Z,6.00
2018-06-20T01:46:17.638Z,5.23
2018-06-20T01:48:45.756Z,2.90
2018-06-20T01:51:13.879Z,5.60
2018-06-20T01:53:41.819Z,2.43
2018-06-20T01:56:09.962Z,5.13
2018-06-20T01:58:37.864Z,3.17
2018-06-20T02:01:05.971Z,3.10
2018-06-20T02:03:34.085Z,2.00
2018-06-20T02:06:02.245Z,2.60
2018-06-20T02:08:30.377Z,3.03
2018-06-20T02:10:58.485Z,4.23
2018-06-20T02:13:26.632Z,2.23
2018-06-20T02:15:54.758Z,2.63
2018-06-20T02:18:22.886Z,3.30
2018-06-20T02:20:51.027Z,6.20
2018-06-20T02:23:19.158Z,3.67
2018-06-20T02:25:47.278Z,3.07
2018-06-20T02:28:15.392Z,3.00
2018-06-20T02:30:43.528Z,2.53
2018-06-20T02:33:11.629Z,5.27
2018-06-20T02:35:39.748Z,5.50
2018-06-20T02:38:07.881Z,2.40
2018-06-20T02:40:36.009Z,3.40
2018-06-20T02:43:04.129Z,2.70
2018-06-20T02:45:32.282Z,3.10
2018-06-20T02:48:00.397Z,3.63
2018-06-20T02:50:28.291Z,8.83
2018-06-20T02:52:56.405Z,4.30
2018-06-20T02:55:24.526Z,3.10
2018-06-20T02:57:52.619Z,3.63
2018-06-20T03:00:20.735Z,2.50
2018-06-20T03:02:49.042Z,6.63
2018-06-20T03:05:17.123Z,4.13
2018-06-20T03:07:45.312Z,3.30
2018-06-20T03:10:13.405Z,2.60
2018-06-20T03:12:41.496Z,5.93
2018-06-20T03:15:09.579Z,3.07
2018-06-20T03:17:37.696Z,5.40
2018-06-20T03:20:05.972Z,4.00
2018-06-20T03:22:33.850Z,3.77
2018-06-20T03:25:02.000Z,4.00
2018-06-20T03:27:30.089Z,2.97
2018-06-20T03:29:58.232Z,6.57
2018-06-20T03:32:26.352Z,2.70
2018-06-20T03:34:54.323Z,5.13
2018-06-20T03:37:22.439Z,2.50
2018-06-20T03:39:50.401Z,2.63
2018-06-20T03:42:18.509Z,2.10
2018-06-20T03:44:46.597Z,2.40
2018-06-20T03:47:14.720Z,2.30
2018-06-20T03:49:42.813Z,2.97
2018-06-20T03:52:10.883Z,2.83
2018-06-20T03:54:38.986Z,2.60
2018-06-20T03:57:07.156Z,4.70
2018-06-20T03:59:36.673Z,2.30
2018-06-20T04:02:06.248Z,2.57
2018-06-20T04:04:34.354Z,2.37
2018-06-20T04:07:02.664Z,3.87
2018-06-20T04:09:31.447Z,3.20
2018-06-20T04:11:59.588Z,3.37
2018-06-20T04:14:27.811Z,4.47
2018-06-20T04:16:56.993Z,4.20
2018-06-20T04:19:25.476Z,4.43
2018-06-20T04:21:53.605Z,2.40
2018-06-20T04:24:21.699Z,2.20
2018-06-20T04:26:49.789Z,2.97
2018-06-20T04:29:17.863Z,2.37
2018-06-20T04:31:46.033Z,4.17
2018-06-20T04:34:14.145Z,2.87
2018-06-20T04:36:42.223Z,2.50
2018-06-20T04:39:11.087Z,4.13
2018-06-20T04:41:39.192Z,4.53
2018-06-20T04:44:07.379Z,2.63
2018-06-20T04:46:35.496Z,2.50
2018-06-20T04:49:03.595Z,2.70
2018-06-20T04:51:31.699Z,2.83
2018-06-20T04:53:59.811Z,4.33
2018-06-20T04:56:27.675Z,5.03
2018-06-20T04:58:55.753Z,2.77
2018-06-20T05:01:23.839Z,6.40
2018-06-20T05:03:51.934Z,5.03
2018-06-20T05:06:20.053Z,3.70
2018-06-20T05:08:48.144Z,4.50
2018-06-20T05:11:16.247Z,4.13
2018-06-20T05:13:44.335Z,4.10
2018-06-20T05:16:12.441Z,4.73
2018-06-20T05:18:40.639Z,2.70
2018-06-20T05:21:08.729Z,5.90
2018-06-20T05:23:36.880Z,4.97
2018-06-20T05:26:04.943Z,6.27
2018-06-20T05:28:33.041Z,5.57
2018-06-20T05:31:01.126Z,3.30
2018-06-20T05:33:29.212Z,4.63
2018-06-20T05:35:57.300Z,6.10
2018-06-20T05:38:25.596Z,4.00
2018-06-20T05:41:00.427Z,5.00
2018-06-20T05:43:28.370Z,4.37
2018-06-20T05:45:56.468Z,3.60
2018-06-20T05:48:24.585Z,4.97
2018-06-20T05:50:52.706Z,2.90
2018-06-20T05:53:20.647Z,6.47
2018-06-20T05:55:48.784Z,6.47
2018-06-20T05:58:16.899Z,3.63
2018-06-20T06:00:44.995Z,4.57
2018-06-20T06:03:12.881Z,4.97
2018-06-20T06:05:40.980Z,9.03
2018-06-20T06:08:11.119Z,7.53
2018-06-20T06:10:39.235Z,4.23
2018-06-20T06:13:07.328Z,4.60
2018-06-20T06:15:35.324Z,11.20
2018-06-20T06:18:03.393Z,6.87
2018-06-20T06:20:31.521Z,6.27
2018-06-20T06:22:59.665Z,9.67
2018-06-20T06:25:27.777Z,4.20
2018-06-20T06:27:55.892Z,12.03
2018-06-20T06:30:24.016Z,7.13
2018-06-20T06:32:52.112Z,6.77
2018-06-20T06:35:19.987Z,6.20
2018-06-20T06:37:48.096Z,6.30
2018-06-20T06:40:15.986Z,7.33
2018-06-20T06:42:43.863Z,6.43
2018-06-20T06:45:11.971Z,8.77
2018-06-20T06:47:40.095Z,4.10
2018-06-20T06:50:08.290Z,7.47
2018-06-20T06:52:36.288Z,9.67
2018-06-20T06:55:04.453Z,5.67
2018-06-20T06:57:32.543Z,4.70
2018-06-20T07:00:00.643Z,9.13
2018-06-20T07:02:28.741Z,9.27
2018-06-20T07:04:56.867Z,8.00
2018-06-20T07:07:24.972Z,5.00
2018-06-20T07:09:53.032Z,7.57
2018-06-20T07:12:21.137Z,7.67
2018-06-20T07:14:49.208Z,8.83
2018-06-20T07:17:17.328Z,6.47
2018-06-20T07:19:45.416Z,6.90
2018-06-20T07:22:13.505Z,6.83
2018-06-20T07:24:41.680Z,6.13
2018-06-20T07:27:09.795Z,7.20
2018-06-20T07:29:37.895Z,8.03
2018-06-20T07:32:06.002Z,8.33
2018-06-20T07:34:34.140Z,8.70
2018-06-20T07:37:02.231Z,5.90
2018-06-20T07:39:30.336Z,6.40
2018-06-20T07:41:58.452Z,4.80
2018-06-20T07:44:26.545Z,5.43
2018-06-20T07:46:54.660Z,4.93
2018-06-20T07:49:22.779Z,5.00
2018-06-20T07:51:50.907Z,6.53
2018-06-20T07:54:18.788Z,5.30
2018-06-20T07:56:46.914Z,6.17
2018-06-20T07:59:15.763Z,6.93
2018-06-20T08:02:00.843Z,6.43
2018-06-20T08:05:36.492Z,6.70
2018-06-20T08:08:10.043Z,7.40
2018-06-20T08:10:43.738Z,6.53
2018-06-20T08:13:17.280Z,6.93
2018-06-20T08:15:50.912Z,4.60
2018-06-20T08:18:24.450Z,8.50
2018-06-20T08:20:52.527Z,7.60
2018-06-20T08:23:20.404Z,6.10
2018-06-20T08:25:48.545Z,5.37
2018-06-20T08:28:16.647Z,6.37
2018-06-20T08:30:44.731Z,7.33
2018-06-20T08:33:12.840Z,6.17
2018-06-20T08:35:40.954Z,5.63
2018-06-20T08:38:09.084Z,6.40
2018-06-20T08:40:37.184Z,6.20
2018-06-20T08:43:05.268Z,5.97
2018-06-20T08:45:33.468Z,7.53
2018-06-20T08:48:01.972Z,12.47
2018-06-20T08:50:30.100Z,10.30
2018-06-20T08:52:58.253Z,5.70
2018-06-20T08:55:26.344Z,5.00
2018-06-20T08:57:54.423Z,6.93
2018-06-20T09:00:27.928Z,6.97
2018-06-20T09:02:56.031Z,5.40
2018-06-20T09:05:29.498Z,5.60
2018-06-20T09:08:02.933Z,9.17
2018-06-20T09:10:36.484Z,7.63
2018-06-20T09:13:10.122Z,9.53
2018-06-20T09:16:44.363Z,5.27
2018-06-20T09:19:18.032Z,7.93
2018-06-20T09:21:46.149Z,4.67
2018-06-20T09:24:14.248Z,5.90
2018-06-20T09:26:42.348Z,10.63
2018-06-20T09:29:10.447Z,12.47
2018-06-20T09:31:38.544Z,5.40
2018-06-20T09:34:06.670Z,6.23
2018-06-20T09:36:34.800Z,5.03
2018-06-20T09:39:02.987Z,5.67
2018-06-20T09:41:30.862Z,5.67
2018-06-20T09:43:58.950Z,6.50
2018-06-20T09:46:27.055Z,6.80
2018-06-20T09:48:55.277Z,5.17
2018-06-20T09:51:23.168Z,5.73
2018-06-20T09:53:51.050Z,7.93
2018-06-20T09:56:19.135Z,7.97
2018-06-20T09:58:47.226Z,5.53
2018-06-20T10:01:20.774Z,5.90
2018-06-20T10:03:54.412Z,5.50
2018-06-20T10:06:28.041Z,4.67
2018-06-20T10:09:01.527Z,6.13
2018-06-20T10:11:34.943Z,7.20
2018-06-20T10:14:04.475Z,7.23
2018-06-20T10:16:32.579Z,4.70
2018-06-20T10:19:00.675Z,4.87
2018-06-20T10:21:28.898Z,7.30
2018-06-20T10:23:56.957Z,7.63
2018-06-20T10:26:25.048Z,6.10
2018-06-20T10:28:53.159Z,8.20
2018-06-20T10:31:21.288Z,8.13
2018-06-20T10:33:49.375Z,6.27
2018-06-20T10:36:17.488Z,10.30
2018-06-20T10:38:45.605Z,5.97
2018-06-20T10:41:13.732Z,9.00
2018-06-20T10:43:41.834Z,6.40
2018-06-20T10:46:15.259Z,9.13
2018-06-20T10:48:43.340Z,7.93
2018-06-20T10:51:11.447Z,7.90
2018-06-20T10:53:39.593Z,11.00
2018-06-20T10:56:07.676Z,9.97
2018-06-20T10:58:41.204Z,7.50
2018-06-20T11:01:14.735Z,8.30
2018-06-20T11:03:48.243Z,12.87
2018-06-20T11:06:21.779Z,8.90
2018-06-20T11:08:55.252Z,6.67
2018-06-20T11:11:28.767Z,14.07
2018-06-20T11:13:56.923Z,8.33
2018-06-20T11:16:24.983Z,11.77
2018-06-20T11:18:54.622Z,9.73
2018-06-20T11:21:22.740Z,17.23
2018-06-20T11:23:50.835Z,10.90
2018-06-20T11:26:18.945Z,14.70
2018-06-20T11:28:47.084Z,8.47
2018-06-20T11:31:15.238Z,12.33
2018-06-20T11:33:43.272Z,14.93
2018-06-20T11:36:11.360Z,10.50
2018-06-20T11:38:39.435Z,12.93
2018-06-20T11:41:07.544Z,12.80
2018-06-20T11:43:35.431Z,16.80
2018-06-20T11:46:09.076Z,20.80
2018-06-20T11:48:37.202Z,18.63
2018-06-20T11:51:06.052Z,17.50
2018-06-20T11:53:34.140Z,20.00
2018-06-20T11:56:02.268Z,17.73
2018-06-20T11:58:35.759Z,20.07
2018-06-20T12:01:09.449Z,16.20
2018-06-20T12:03:42.920Z,14.83
2018-06-20T12:06:16.605Z,17.67
2018-06-20T12:08:50.194Z,18.87
2018-06-20T12:11:23.916Z,18.60
2018-06-20T12:13:57.419Z,18.50
2018-06-20T12:16:26.472Z,15.63
2018-06-20T12:19:00.115Z,18.70
2018-06-20T12:21:33.858Z,15.00
2018-06-20T12:24:07.463Z,12.40
2018-06-20T12:26:41.189Z,19.20
2018-06-20T12:29:14.724Z,13.30
2018-06-20T12:31:48.172Z,13.60
2018-06-20T12:34:21.577Z,14.70
2018-06-20T12:36:54.951Z,13.47
2018-06-20T12:39:22.305Z,13.53
2018-06-20T12:41:56.032Z,14.40
2018-06-20T12:44:29.765Z,14.60
2018-06-20T12:47:00.882Z,14.43
2018-06-20T12:49:33.900Z,14.10
2018-06-20T12:52:02.032Z,12.00
2018-06-20T12:54:30.200Z,14.40
2018-06-20T12:56:58.315Z,12.17
2018-06-20T12:59:26.543Z,13.10
2018-06-20T13:01:54.668Z,10.00
2018-06-20T13:04:22.772Z,12.00
2018-06-20T13:06:50.911Z,11.07
2018-06-20T13:09:19.045Z,13.90
2018-06-20T13:11:47.151Z,10.90
2018-06-20T13:14:15.284Z,13.70
2018-06-20T13:16:43.648Z,16.00
2018-06-20T13:19:11.764Z,12.30
2018-06-20T13:21:39.882Z,12.63
2018-06-20T13:24:07.985Z,11.30
2018-06-20T13:26:36.080Z,12.37
2018-06-20T13:29:04.235Z,12.80
2018-06-20T13:32:36.564Z,11.00
2018-06-20T13:35:10.131Z,18.43
2018-06-20T13:37:43.518Z,11.17
2018-06-20T13:40:16.927Z,11.20
2018-06-20T13:42:50.403Z,14.83
2018-06-20T13:45:23.884Z,10.27
2018-06-20T13:47:57.296Z,11.97
2018-06-20T13:50:25.467Z,11.83
2018-06-20T13:52:53.592Z,12.07
2018-06-20T13:55:21.696Z,10.57
2018-06-20T13:57:49.801Z,12.07
2018-06-20T14:00:17.692Z,11.60
2018-06-20T14:02:45.804Z,10.40
2018-06-20T14:05:13.902Z,11.93
2018-06-20T14:07:43.099Z,12.07
2018-06-20T14:10:11.208Z,10.97
2018-06-20T14:12:40.021Z,11.67
2018-06-20T14:15:08.112Z,11.70
2018-06-20T14:17:36.243Z,10.50
2018-06-20T14:20:09.916Z,11.50
2018-06-20T14:22:38.124Z,9.23
2018-06-20T14:25:06.295Z,9.07
2018-06-20T14:27:34.402Z,11.90
2018-06-20T14:30:02.520Z,15.30
2018-06-20T14:32:36.177Z,10.60
2018-06-20T14:35:09.837Z,11.70
2018-06-20T14:37:43.308Z,11.97
2018-06-20T14:40:16.701Z,12.13
2018-06-20T14:42:50.292Z,12.00
2018-06-20T14:46:26.190Z,11.40
2018-06-20T14:48:54.347Z,12.10
2018-06-20T14:51:22.452Z,13.70
2018-06-20T14:53:50.593Z,10.83
2018-06-20T14:56:18.716Z,11.07
2018-06-20T14:58:46.840Z,11.07
2018-06-20T15:01:14.977Z,13.97
2018-06-20T15:03:43.068Z,11.20
2018-06-20T15:06:11.223Z,10.47
2018-06-20T15:08:39.335Z,10.57
2018-06-20T15:11:07.493Z,11.80
2018-06-20T15:13:35.361Z,13.57
2018-06-20T15:16:08.796Z,11.00
2018-06-20T15:18:36.891Z,10.50
2018-06-20T15:21:05.032Z,11.30
2018-06-20T15:23:33.548Z,15.17
2018-06-20T15:26:07.237Z,13.90
2018-06-20T15:28:40.775Z,12.10
2018-06-20T15:31:14.223Z,13.63
2018-06-20T15:33:47.589Z,12.50
2018-06-20T15:36:21.066Z,12.93
2018-06-20T15:38:49.164Z,14.47
2018-06-20T15:41:17.290Z,11.40
2018-06-20T15:43:45.447Z,14.27
2018-06-20T15:46:13.542Z,13.53
2018-06-20T15:48:41.640Z,10.77
2018-06-20T15:51:09.800Z,12.67
2018-06-20T15:53:37.932Z,11.87
2018-06-20T15:56:06.077Z,11.60
2018-06-20T15:58:34.168Z,10.80
2018-06-20T16:01:02.294Z,11.60
2018-06-20T16:03:30.175Z,11.97
2018-06-20T16:05:58.052Z,9.93
2018-06-20T16:08:26.154Z,11.77
2018-06-20T16:10:54.245Z,9.43
2018-06-20T16:13:22.363Z,8.83
2018-06-20T16:15:50.455Z,8.97
2018-06-20T16:18:18.932Z,10.77
2018-06-20T16:20:52.550Z,11.20
2018-06-20T16:23:26.063Z,9.50
2018-06-20T16:25:59.656Z,10.30
2018-06-20T16:28:33.180Z,10.20
2018-06-20T16:31:01.263Z,9.80
2018-06-20T16:33:29.158Z,10.00
2018-06-20T16:35:57.297Z,10.00
2018-06-20T16:38:25.450Z,10.37
2018-06-20T16:40:53.540Z,10.60
2018-06-20T16:43:21.659Z,9.47
2018-06-20T16:45:49.767Z,10.60
2018-06-20T16:48:17.884Z,8.17
2018-06-20T16:50:45.984Z,9.30
2018-06-20T16:53:14.119Z,8.37
2018-06-20T16:55:42.228Z,9.23
2018-06-20T16:58:10.360Z,8.77
2018-06-20T17:00:38.515Z,10.10
2018-06-20T17:03:06.598Z,10.07
2018-06-20T17:05:34.727Z,10.13
2018-06-20T17:08:02.893Z,9.00
2018-06-20T17:10:30.998Z,9.83
2018-06-20T17:13:04.740Z,10.13
2018-06-20T17:15:38.203Z,8.97
2018-06-20T17:18:11.620Z,9.90
2018-06-20T17:20:45.263Z,8.57
2018-06-20T17:23:18.639Z,8.27
2018-06-20T17:25:46.747Z,7.80
2018-06-20T17:28:14.829Z,8.70
2018-06-20T17:30:42.923Z,9.03
2018-06-20T17:33:11.019Z,7.93
2018-06-20T17:35:39.103Z,8.30
2018-06-20T17:38:07.335Z,8.20
2018-06-20T17:40:35.414Z,7.50
2018-06-20T17:43:03.560Z,8.80
2018-06-20T17:45:31.693Z,7.60
2018-06-20T17:47:59.825Z,7.90
2018-06-20T17:50:27.756Z,7.13
2018-06-20T17:52:55.855Z,7.37
2018-06-20T17:55:23.968Z,8.00
2018-06-20T17:57:52.088Z,7.80
2018-06-20T18:00:20.207Z,7.47
2018-06-20T18:02:48.086Z,7.33
2018-06-20T18:05:21.548Z,8.07
2018-06-20T18:07:55.044Z,9.80
2018-06-20T18:10:28.712Z,9.17
2018-06-20T18:13:01.083Z,7.40
2018-06-20T18:15:34.594Z,8.10
2018-06-20T18:18:02.725Z,8.03
2018-06-20T18:20:30.871Z,7.80
2018-06-20T18:22:58.952Z,7.30
2018-06-20T18:25:27.092Z,7.80
2018-06-20T18:27:54.972Z,7.03
2018-06-20T18:30:23.065Z,7.50
2018-06-20T18:32:51.141Z,7.20
2018-06-20T18:35:19.223Z,6.40
2018-06-20T18:37:47.346Z,6.63
2018-06-20T18:40:15.460Z,6.33
2018-06-20T18:42:43.596Z,6.90
2018-06-20T18:45:11.705Z,5.73
2018-06-20T18:47:45.214Z,6.53
2018-06-20T18:50:13.335Z,5.73
2018-06-20T18:52:41.443Z,6.30
2018-06-20T18:55:09.578Z,5.67
2018-06-20T18:57:42.984Z,5.80
2018-06-20T19:00:16.449Z,5.57
2018-06-20T19:03:53.563Z,5.23
2018-06-20T19:06:27.208Z,5.50
2018-06-20T19:08:58.692Z,5.60
2018-06-20T19:11:26.752Z,6.00
2018-06-20T19:13:54.856Z,5.70
2018-06-20T19:16:22.725Z,6.07
2018-06-20T19:18:50.845Z,6.03
2018-06-20T19:21:18.932Z,5.00
2018-06-20T19:23:47.106Z,5.00
2018-06-20T19:26:15.220Z,5.40
2018-06-20T19:28:43.331Z,5.20
2018-06-20T19:31:11.285Z,6.00
2018-06-20T19:33:39.393Z,11.23
2018-06-20T19:36:07.471Z,5.90
2018-06-20T19:38:35.577Z,5.77
2018-06-20T19:41:03.712Z,5.33
2018-06-20T19:43:31.816Z,5.33
2018-06-20T19:45:59.723Z,5.40
2018-06-20T19:48:27.815Z,5.10
2018-06-20T19:50:55.907Z,5.77
2018-06-20T19:53:24.022Z,5.60
2018-06-20T19:55:52.100Z,5.70
2018-06-20T19:58:20.228Z,5.97
2018-06-20T20:00:48.320Z,5.47
2018-06-20T20:03:16.435Z,5.30
2018-06-20T20:05:44.548Z,5.37
2018-06-20T20:08:12.679Z,5.80
2018-06-20T20:10:40.800Z,5.57
2018-06-20T20:13:08.909Z,5.63
2018-06-20T20:15:37.065Z,6.23
2018-06-20T20:18:05.181Z,6.07
2018-06-20T20:20:33.125Z,5.67
2018-06-20T20:23:01.233Z,6.03
2018-06-20T20:25:29.418Z,6.63
2018-06-20T20:27:57.512Z,7.80
2018-06-20T20:30:25.659Z,6.50
2018-06-20T20:32:55.872Z,6.53
2018-06-20T20:35:24.260Z,4.80
2018-06-20T20:37:52.356Z,7.20
2018-06-20T20:40:20.576Z,5.93
2018-06-20T20:42:48.684Z,5.90
2018-06-20T20:45:16.771Z,6.10
2018-06-20T20:47:44.967Z,6.00
2018-06-20T20:50:13.060Z,6.10
2018-06-20T20:52:41.231Z,6.47
2018-06-20T20:55:09.332Z,4.57
2018-06-20T20:57:37.433Z,4.97
2018-06-20T21:00:05.610Z,5.50
2018-06-20T21:02:33.724Z,4.53
2018-06-20T21:05:01.844Z,5.17
2018-06-20T21:07:29.953Z,4.63
2018-06-20T21:09:58.059Z,5.27
2018-06-20T21:12:26.217Z,4.83
2018-06-20T21:14:54.311Z,5.10
2018-06-20T21:17:22.760Z,5.20
2018-06-20T21:19:50.879Z,5.03
2018-06-20T21:22:18.820Z,6.03
2018-06-20T21:24:46.946Z,5.17
2018-06-20T21:27:15.055Z,5.27
2018-06-20T21:29:43.143Z,5.97
2018-06-20T21:32:11.252Z,6.27
2018-06-20T21:34:39.489Z,7.30
2018-06-20T21:37:08.344Z,7.70
2018-06-20T21:39:36.441Z,9.30
2018-06-20T21:42:04.555Z,14.33
2018-06-20T21:44:32.648Z,21.87
2018-06-20T21:47:00.733Z,16.57
2018-06-20T21:49:29.644Z,16.63
2018-06-20T21:51:57.768Z,17.50
2018-06-20T21:54:25.899Z,15.20
2018-06-20T21:56:54.019Z,16.03
2018-06-20T21:59:22.399Z,19.53
2018-06-20T22:01:50.507Z,17.97
2018-06-20T22:04:18.872Z,18.00
2018-06-20T22:06:47.019Z,26.67
2018-06-20T22:09:15.143Z,27.97
2018-06-20T22:11:43.245Z,32.40
2018-06-20T22:14:11.874Z,27.23
2018-06-20T22:16:39.957Z,26.07
2018-06-20T22:19:08.123Z,18.60
2018-06-20T22:21:36.288Z,31.80
2018-06-20T22:24:04.190Z,33.60
2018-06-20T22:26:32.296Z,31.37
2018-06-20T22:29:00.394Z,25.63
2018-06-20T22:31:28.505Z,32.23
2018-06-20T22:33:56.607Z,19.07
2018-06-20T22:36:24.708Z,34.27
2018-06-20T22:38:52.833Z,30.40
2018-06-20T22:41:20.925Z,41.60
2018-06-20T22:43:49.034Z,33.93
2018-06-20T22:46:17.151Z,36.03
2018-06-20T22:48:45.260Z,33.57
2018-06-20T22:51:13.373Z,32.23
2018-06-20T22:53:41.480Z,31.00
2018-06-20T22:56:09.580Z,37.13
2018-06-20T22:58:37.683Z,31.20
2018-06-20T23:01:05.899Z,19.57
2018-06-20T23:03:33.993Z,35.83
2018-06-20T23:06:02.148Z,27.53
2018-06-20T23:08:30.248Z,27.97
2018-06-20T23:10:58.361Z,27.27
2018-06-20T23:13:26.478Z,23.10
2018-06-20T23:15:54.579Z,27.13
2018-06-20T23:18:22.699Z,24.07
2018-06-20T23:20:50.792Z,26.30
2018-06-20T23:23:18.887Z,25.73
2018-06-20T23:25:46.975Z,24.00
2018-06-20T23:28:15.089Z,23.63
2018-06-20T23:30:43.225Z,25.57
2018-06-20T23:33:11.179Z,26.80
2018-06-20T23:35:39.257Z,24.60
2018-06-20T23:38:07.164Z,23.90
2018-06-20T23:40:35.263Z,25.17
2018-06-20T23:43:03.366Z,27.50
2018-06-20T23:45:31.647Z,29.37
2018-06-20T23:47:59.763Z,28.00
2018-06-20T23:50:27.658Z,28.77
2018-06-20T23:52:55.766Z,21.47
2018-06-20T23:55:23.908Z,23.63
2018-06-20T23:57:52.000Z,21.10
